メインページ
METAR-TAF:

METAR-TAF

空港 :

Williams Lake, ブリティッシュコロンビア州, カナダ

緯度: 52-11N, 経度: 122-03W, 海抜: 940m

現時点の気象観測

当レポートは40分前の00:00(UTC)に作成
東/南東の風 13kt、最大18ktの突風を伴う
気温 25°C
湿度 26%
気圧 1011 hPa
視程: 24.1km
高度14000ftの千切れ雲あり
高度22000ftの千切れ雲あり

METAR: CYWL 210000Z 12013G18KT 15SM BKN140 BKN220 25/04 A2984 RMK AC5CI2 SLP100 DENSITY ALT 5100FT

時間: 17:40 (00:40 UTC)

予報

当レポートは6時間2分前の18:38(UTC)に作成
予報は20日の 19時(UTC)から 21日の 07時(UTC)まで有効
東/南東の風 10kt、最大20ktの突風を伴う
視程: 10km
高度18000ftの雲は散在している
20日の 2100時(UTC)から
東/南東の風 15kt、最大25ktの突風を伴う
視程: 10km
高度15000ftの千切れ雲あり
20日の 21時(UTC)から 21日の 07時(UTC)まで一時的に
高度15000ftの雲は散在している
21日の 01時(UTC)から 21日の 03時(UTC)まで徐々に
東/南東の風 10kt

TAF: CYWL 201838Z 2019/2107 12010G20KT P6SM SCT180 FM202100 12015G25KT P6SM BKN150 TEMPO 2021/2107 SCT150 BECMG 2101/2103 12010KT RMK NXT FCST BY 210100Z

4,000以上の空港の気象観測と天気予報(METAR報とTAF報)

利用可能な観測所は地図上に黄色い丸と赤い丸で示す。

丸の上にカーソルを重ねると観測所名を参照できる。

次にクリックすると気象観測と天気予報を参照できる。

マップの切り替え:黒色「×」印の緑ボタンをクリックして拡大、「-」印の緑ボタンをクリックして縮小、緑色の三角印をクリックして隣りの地図に切り替え


METAR-TAF: